createdAt,value
2018-06-09T00:00:47.613Z,48.70
2018-06-09T00:01:52.435Z,48.70
2018-06-09T00:02:57.635Z,48.70
2018-06-09T00:04:02.611Z,48.70
2018-06-09T00:05:07.702Z,48.70
2018-06-09T00:06:12.864Z,48.70
2018-06-09T00:07:17.805Z,48.70
2018-06-09T00:08:22.788Z,48.70
2018-06-09T00:09:27.659Z,48.70
2018-06-09T00:10:32.742Z,48.70
2018-06-09T00:11:37.679Z,48.70
2018-06-09T00:12:42.596Z,48.70
2018-06-09T00:13:47.355Z,48.60
2018-06-09T00:14:52.483Z,48.70
2018-06-09T00:15:57.681Z,48.60
2018-06-09T00:17:02.658Z,48.60
2018-06-09T00:18:07.645Z,48.70
2018-06-09T00:19:12.607Z,48.70
2018-06-09T00:20:17.526Z,48.60
2018-06-09T00:21:22.501Z,48.70
2018-06-09T00:22:27.404Z,48.60
2018-06-09T00:23:32.234Z,48.50
2018-06-09T00:24:36.970Z,48.70
2018-06-09T00:25:41.759Z,48.50
2018-06-09T00:26:46.652Z,48.50
2018-06-09T00:27:51.615Z,49.20
2018-06-09T00:28:56.491Z,48.50
2018-06-09T00:30:01.445Z,48.50
2018-06-09T00:31:06.302Z,48.40
2018-06-09T00:32:10.949Z,48.40
2018-06-09T00:33:15.809Z,48.50
2018-06-09T00:34:20.662Z,48.40
2018-06-09T00:35:25.386Z,49.10
2018-06-09T00:36:30.114Z,48.40
2018-06-09T00:37:35.003Z,48.40
2018-06-09T00:38:39.845Z,48.40
2018-06-09T00:39:44.640Z,48.40
2018-06-09T00:40:49.705Z,48.40
2018-06-09T00:41:54.586Z,48.40
2018-06-09T00:42:59.492Z,48.40
2018-06-09T00:44:04.339Z,48.40
2018-06-09T00:45:09.250Z,48.30
2018-06-09T00:46:14.133Z,48.30
2018-06-09T00:47:18.922Z,48.30
2018-06-09T00:48:24.270Z,48.30
2018-06-09T00:49:29.174Z,48.30
2018-06-09T00:50:34.982Z,48.30
2018-06-09T00:51:39.703Z,48.30
2018-06-09T00:52:44.382Z,48.30
2018-06-09T00:53:49.300Z,48.20
2018-06-09T00:54:54.212Z,48.10
2018-06-09T00:55:59.112Z,48.10
2018-06-09T00:57:03.902Z,48.10
2018-06-09T00:58:08.815Z,48.10
2018-06-09T00:59:13.809Z,48.10
2018-06-09T01:00:18.963Z,48.10
2018-06-09T01:01:24.029Z,48.00
2018-06-09T01:02:29.143Z,48.00
2018-06-09T01:03:34.220Z,48.00
2018-06-09T01:04:39.208Z,48.00
2018-06-09T01:05:44.158Z,48.00
2018-06-09T01:06:49.052Z,48.00
2018-06-09T01:07:54.005Z,48.00
2018-06-09T01:08:59.231Z,48.00
2018-06-09T01:10:04.465Z,47.90
2018-06-09T01:11:09.458Z,47.90
2018-06-09T01:12:14.438Z,48.00
2018-06-09T01:13:19.338Z,47.90
2018-06-09T01:14:24.414Z,47.90
2018-06-09T01:15:29.524Z,47.90
2018-06-09T01:16:34.468Z,47.80
2018-06-09T01:17:39.501Z,47.80
2018-06-09T01:18:44.821Z,47.80
2018-06-09T01:19:49.741Z,47.80
2018-06-09T01:20:54.435Z,47.80
2018-06-09T01:21:59.474Z,47.80
2018-06-09T01:23:04.138Z,47.70
2018-06-09T01:24:08.987Z,47.70
2018-06-09T01:25:13.973Z,47.70
2018-06-09T01:26:18.804Z,47.70
2018-06-09T01:27:23.880Z,47.60
2018-06-09T01:28:28.713Z,47.60
2018-06-09T01:29:33.874Z,47.60
2018-06-09T01:30:38.737Z,47.60
2018-06-09T01:31:43.646Z,47.50
2018-06-09T01:32:48.475Z,47.50
2018-06-09T01:33:53.280Z,47.50
2018-06-09T01:34:58.182Z,47.40
2018-06-09T01:36:03.089Z,47.40
2018-06-09T01:37:07.981Z,47.40
2018-06-09T01:38:12.689Z,47.30
2018-06-09T01:39:17.592Z,47.30
2018-06-09T01:40:22.663Z,47.30
2018-06-09T01:41:27.778Z,47.20
2018-06-09T01:42:32.613Z,47.20
2018-06-09T01:43:37.637Z,47.20
2018-06-09T01:44:42.626Z,47.10
2018-06-09T01:45:47.673Z,47.10
2018-06-09T01:46:52.755Z,47.00
2018-06-09T01:47:57.676Z,46.90
2018-06-09T01:49:02.692Z,47.00
2018-06-09T01:50:07.689Z,46.90
2018-06-09T01:51:12.574Z,46.90
2018-06-09T01:52:17.301Z,46.90
2018-06-09T01:53:22.245Z,46.90
2018-06-09T01:54:27.304Z,46.80
2018-06-09T01:55:32.157Z,46.80
2018-06-09T01:56:37.083Z,46.80
2018-06-09T01:57:42.219Z,46.80
2018-06-09T01:58:47.187Z,46.80
2018-06-09T01:59:52.241Z,46.70
2018-06-09T02:00:57.324Z,46.70
2018-06-09T02:02:02.380Z,46.60
2018-06-09T02:03:07.386Z,46.60
2018-06-09T02:04:12.156Z,46.70
2018-06-09T02:05:17.376Z,46.70
2018-06-09T02:06:22.447Z,46.60
2018-06-09T02:07:27.196Z,46.60
2018-06-09T02:08:31.924Z,46.60
2018-06-09T02:09:37.015Z,46.60
2018-06-09T02:10:42.192Z,46.50
2018-06-09T02:11:47.321Z,46.50
2018-06-09T02:12:52.211Z,46.50
2018-06-09T02:13:57.196Z,46.40
2018-06-09T02:15:02.235Z,46.40
2018-06-09T02:16:07.402Z,46.40
2018-06-09T02:17:12.281Z,46.40
2018-06-09T02:18:17.262Z,46.40
2018-06-09T02:19:22.272Z,46.40
2018-06-09T02:20:27.311Z,46.40
2018-06-09T02:21:32.180Z,46.30
2018-06-09T02:22:36.922Z,46.30
2018-06-09T02:23:41.949Z,46.20
2018-06-09T02:24:46.968Z,46.20
2018-06-09T02:25:51.821Z,46.20
2018-06-09T02:26:56.735Z,46.20
2018-06-09T02:28:01.737Z,46.20
2018-06-09T02:29:06.732Z,46.20
2018-06-09T02:30:11.730Z,46.10
2018-06-09T02:31:16.571Z,46.10
2018-06-09T02:32:21.629Z,46.10
2018-06-09T02:33:26.523Z,46.00
2018-06-09T02:34:31.555Z,46.10
2018-06-09T02:35:36.721Z,46.00
2018-06-09T02:36:41.885Z,46.00
2018-06-09T02:37:46.871Z,46.00
2018-06-09T02:38:51.903Z,46.00
2018-06-09T02:39:56.666Z,46.10
2018-06-09T02:41:01.407Z,46.70
2018-06-09T02:42:06.151Z,46.10
2018-06-09T02:43:10.871Z,46.10
2018-06-09T02:44:15.645Z,46.10
2018-06-09T02:45:20.372Z,46.00
2018-06-09T02:46:25.087Z,46.00
2018-06-09T02:47:30.162Z,45.90
2018-06-09T02:48:35.323Z,45.80
2018-06-09T02:49:40.464Z,45.80
2018-06-09T02:50:45.404Z,45.80
2018-06-09T02:51:50.600Z,45.80
2018-06-09T02:52:55.740Z,45.70
2018-06-09T02:54:00.896Z,45.70
2018-06-09T02:55:05.660Z,45.60
2018-06-09T02:56:10.830Z,45.60
2018-06-09T02:57:15.634Z,45.60
2018-06-09T02:58:20.453Z,45.50
2018-06-09T02:59:25.477Z,45.60
2018-06-09T03:00:30.425Z,45.50
2018-06-09T03:01:35.367Z,45.50
2018-06-09T03:02:40.421Z,45.40
2018-06-09T03:03:45.553Z,45.40
2018-06-09T03:04:50.490Z,45.30
2018-06-09T03:05:55.651Z,45.40
2018-06-09T03:07:00.864Z,45.30
2018-06-09T03:08:05.766Z,45.20
2018-06-09T03:09:10.580Z,45.20
2018-06-09T03:10:15.575Z,45.20
2018-06-09T03:11:20.448Z,45.20
2018-06-09T03:12:25.898Z,45.10
2018-06-09T03:13:30.671Z,45.00
2018-06-09T03:14:35.469Z,45.00
2018-06-09T03:15:40.489Z,45.00
2018-06-09T03:16:45.534Z,45.00
2018-06-09T03:17:50.395Z,45.00
2018-06-09T03:18:55.655Z,45.00
2018-06-09T03:20:00.695Z,45.10
2018-06-09T03:21:05.557Z,45.00
2018-06-09T03:22:10.524Z,45.10
2018-06-09T03:23:15.619Z,45.00
2018-06-09T03:24:20.676Z,45.10
2018-06-09T03:25:25.597Z,45.00
2018-06-09T03:26:30.860Z,45.10
2018-06-09T03:27:35.867Z,45.10
2018-06-09T03:28:41.010Z,45.10
2018-06-09T03:29:46.038Z,45.10
2018-06-09T03:30:50.981Z,45.00
2018-06-09T03:31:56.140Z,45.10
2018-06-09T03:33:01.185Z,45.10
2018-06-09T03:34:06.103Z,45.00
2018-06-09T03:35:11.174Z,44.90
2018-06-09T03:36:16.184Z,45.00
2018-06-09T03:37:21.000Z,44.90
2018-06-09T03:38:25.925Z,45.00
2018-06-09T03:39:30.906Z,45.00
2018-06-09T03:40:35.886Z,44.90
2018-06-09T03:41:40.976Z,44.80
2018-06-09T03:42:46.170Z,44.80
2018-06-09T03:43:51.001Z,44.90
2018-06-09T03:44:55.782Z,44.90
2018-06-09T03:46:00.834Z,44.90
2018-06-09T03:47:05.587Z,44.90
2018-06-09T03:48:11.807Z,44.90
2018-06-09T03:49:16.680Z,45.00
2018-06-09T03:50:21.769Z,45.00
2018-06-09T03:51:26.487Z,45.10
2018-06-09T03:52:31.508Z,45.00
2018-06-09T03:53:36.534Z,44.90
2018-06-09T03:54:41.661Z,45.60
2018-06-09T03:55:47.721Z,45.00
2018-06-09T03:56:52.602Z,44.90
2018-06-09T03:57:57.414Z,44.80
2018-06-09T03:59:02.258Z,44.50
2018-06-09T04:00:07.344Z,44.30
2018-06-09T04:01:12.483Z,44.20
2018-06-09T04:02:17.609Z,44.20
2018-06-09T04:03:22.501Z,44.20
2018-06-09T04:04:27.451Z,44.10
2018-06-09T04:05:32.211Z,44.00
2018-06-09T04:06:37.192Z,44.00
2018-06-09T04:07:42.090Z,44.00
2018-06-09T04:08:47.005Z,43.90
2018-06-09T04:09:51.813Z,43.90
2018-06-09T04:10:56.759Z,43.90
2018-06-09T04:12:01.671Z,44.00
2018-06-09T04:13:06.756Z,43.90
2018-06-09T04:14:11.563Z,43.80
2018-06-09T04:15:16.458Z,43.80
2018-06-09T04:16:21.140Z,43.70
2018-06-09T04:17:26.136Z,43.70
2018-06-09T04:18:31.401Z,43.70
2018-06-09T04:19:36.100Z,43.70
2018-06-09T04:20:41.247Z,43.70
2018-06-09T04:21:46.012Z,43.60
2018-06-09T04:22:51.155Z,43.50
2018-06-09T04:23:56.257Z,43.50
2018-06-09T04:25:01.474Z,43.50
2018-06-09T04:26:06.301Z,43.50
2018-06-09T04:27:11.386Z,43.50
2018-06-09T04:28:16.383Z,43.50
2018-06-09T04:29:21.183Z,43.40
2018-06-09T04:30:26.138Z,43.40
2018-06-09T04:31:31.241Z,43.30
2018-06-09T04:32:36.378Z,43.10
2018-06-09T04:33:41.403Z,43.20
2018-06-09T04:34:46.559Z,43.10
2018-06-09T04:35:51.662Z,43.10
2018-06-09T04:36:56.601Z,43.10
2018-06-09T04:38:01.463Z,43.00
2018-06-09T04:39:06.489Z,42.90
2018-06-09T04:40:11.457Z,42.90
2018-06-09T04:41:16.492Z,42.90
2018-06-09T04:42:21.572Z,43.00
2018-06-09T04:43:26.551Z,43.00
2018-06-09T04:44:31.273Z,42.90
2018-06-09T04:45:36.139Z,43.00
2018-06-09T04:46:40.854Z,42.80
2018-06-09T04:47:45.526Z,42.70
2018-06-09T04:48:50.349Z,42.70
2018-06-09T04:49:55.255Z,42.60
2018-06-09T04:51:00.312Z,42.60
2018-06-09T04:52:05.314Z,42.70
2018-06-09T04:53:10.112Z,42.60
2018-06-09T04:54:14.929Z,42.50
2018-06-09T04:55:19.689Z,42.50
2018-06-09T04:56:24.438Z,42.60
2018-06-09T04:57:29.388Z,42.70
2018-06-09T04:58:34.694Z,42.80
2018-06-09T04:59:39.923Z,42.80
2018-06-09T05:00:44.856Z,42.90
2018-06-09T05:01:49.883Z,43.00
2018-06-09T05:02:54.825Z,43.10
2018-06-09T05:03:59.828Z,43.20
2018-06-09T05:05:04.779Z,43.40
2018-06-09T05:06:09.638Z,43.50
2018-06-09T05:07:14.800Z,43.70
2018-06-09T05:08:19.687Z,43.70
2018-06-09T05:09:24.801Z,43.70
2018-06-09T05:10:29.971Z,43.70
2018-06-09T05:11:35.122Z,43.80
2018-06-09T05:12:40.263Z,43.90
2018-06-09T05:13:44.958Z,43.90
2018-06-09T05:14:49.724Z,44.00
2018-06-09T05:15:54.413Z,44.10
2018-06-09T05:16:59.297Z,44.10
2018-06-09T05:18:04.842Z,44.00
2018-06-09T05:19:09.806Z,44.00
2018-06-09T05:20:14.669Z,44.10
2018-06-09T05:21:19.668Z,44.10
2018-06-09T05:22:24.555Z,44.10
2018-06-09T05:23:29.759Z,44.10
2018-06-09T05:24:34.838Z,44.10
2018-06-09T05:25:40.126Z,44.10
2018-06-09T05:26:45.097Z,44.10
2018-06-09T05:27:50.118Z,44.00
2018-06-09T05:28:54.884Z,44.10
2018-06-09T05:29:59.860Z,44.00
2018-06-09T05:31:04.663Z,43.90
2018-06-09T05:32:09.516Z,43.80
2018-06-09T05:33:14.595Z,43.90
2018-06-09T05:34:19.635Z,43.90
2018-06-09T05:35:24.492Z,43.90
2018-06-09T05:36:30.418Z,43.90
2018-06-09T05:37:35.544Z,43.80
2018-06-09T05:38:40.366Z,43.70
2018-06-09T05:39:45.310Z,43.70
2018-06-09T05:40:50.435Z,43.70
2018-06-09T05:41:55.389Z,43.50
2018-06-09T05:43:00.344Z,43.40
2018-06-09T05:44:05.178Z,43.40
2018-06-09T05:45:10.293Z,43.50
2018-06-09T05:46:15.281Z,43.50
2018-06-09T05:47:20.149Z,43.40
2018-06-09T05:48:25.248Z,43.40
2018-06-09T05:49:30.234Z,43.40
2018-06-09T05:50:35.215Z,43.30
2018-06-09T05:51:39.958Z,43.30
2018-06-09T05:52:45.366Z,43.20
2018-06-09T05:53:50.359Z,43.30
2018-06-09T05:54:55.546Z,43.40
2018-06-09T05:56:00.654Z,43.40
2018-06-09T05:57:05.615Z,43.50
2018-06-09T05:58:10.382Z,43.40
2018-06-09T05:59:15.162Z,43.30
2018-06-09T06:00:20.011Z,43.30
2018-06-09T06:01:24.975Z,43.30
2018-06-09T06:02:29.797Z,43.30
2018-06-09T06:03:34.694Z,43.40
2018-06-09T06:04:39.655Z,43.50
2018-06-09T06:05:44.411Z,43.60
2018-06-09T06:06:49.315Z,43.60
2018-06-09T06:07:53.993Z,43.50
2018-06-09T06:08:58.729Z,43.60
2018-06-09T06:10:03.663Z,43.90
2018-06-09T06:11:08.579Z,44.00
2018-06-09T06:12:13.472Z,44.10
2018-06-09T06:13:18.373Z,44.20
2018-06-09T06:14:23.294Z,44.20
2018-06-09T06:15:28.201Z,44.30
2018-06-09T06:16:32.918Z,44.30
2018-06-09T06:17:37.663Z,44.40
2018-06-09T06:18:42.926Z,44.50
2018-06-09T06:19:47.980Z,44.50
2018-06-09T06:20:52.869Z,44.50
2018-06-09T06:21:57.533Z,44.60
2018-06-09T06:23:02.453Z,44.60
2018-06-09T06:24:07.366Z,44.60
2018-06-09T06:25:12.263Z,44.70
2018-06-09T06:26:17.355Z,44.70
2018-06-09T06:27:22.317Z,44.70
2018-06-09T06:28:27.107Z,44.80
2018-06-09T06:29:31.988Z,44.80
2018-06-09T06:30:37.038Z,44.80
2018-06-09T06:31:41.902Z,44.90
2018-06-09T06:32:46.806Z,44.90
2018-06-09T06:33:51.643Z,44.90
2018-06-09T06:34:56.456Z,44.90
2018-06-09T06:36:01.195Z,45.00
2018-06-09T06:37:06.082Z,45.00
2018-06-09T06:38:11.042Z,45.00
2018-06-09T06:39:16.114Z,45.10
2018-06-09T06:40:20.776Z,45.00
2018-06-09T06:41:25.417Z,45.10
2018-06-09T06:42:30.156Z,45.10
2018-06-09T06:43:34.864Z,45.10
2018-06-09T06:44:39.849Z,45.30
2018-06-09T06:45:44.886Z,45.20
2018-06-09T06:46:49.981Z,45.20
2018-06-09T06:47:55.256Z,45.20
2018-06-09T06:48:59.900Z,45.30
2018-06-09T06:50:04.818Z,45.30
2018-06-09T06:51:09.746Z,45.30
2018-06-09T06:52:14.717Z,45.30
2018-06-09T06:53:19.454Z,45.40
2018-06-09T06:54:24.594Z,45.40
2018-06-09T06:55:29.547Z,45.40
2018-06-09T06:56:34.452Z,45.50
2018-06-09T06:57:39.486Z,45.50
2018-06-09T06:58:44.551Z,45.50
2018-06-09T06:59:49.402Z,45.50
2018-06-09T07:00:54.441Z,45.60
2018-06-09T07:01:59.515Z,45.60
2018-06-09T07:03:04.579Z,45.60
2018-06-09T07:04:09.471Z,45.60
2018-06-09T07:05:14.661Z,45.70
2018-06-09T07:06:19.625Z,45.80
2018-06-09T07:07:24.558Z,45.70
2018-06-09T07:08:29.607Z,45.70
2018-06-09T07:09:34.709Z,45.70
2018-06-09T07:10:39.502Z,45.80
2018-06-09T07:11:44.453Z,45.80
2018-06-09T07:12:49.558Z,45.90
2018-06-09T07:13:54.618Z,45.90
2018-06-09T07:14:59.526Z,45.90
2018-06-09T07:16:04.303Z,45.90
2018-06-09T07:17:09.240Z,45.90
2018-06-09T07:18:14.102Z,46.00
2018-06-09T07:19:19.042Z,46.00
2018-06-09T07:20:23.946Z,45.90
2018-06-09T07:21:28.947Z,46.10
2018-06-09T07:22:33.789Z,46.00
2018-06-09T07:23:38.701Z,46.00
2018-06-09T07:24:43.549Z,46.10
2018-06-09T07:25:48.276Z,46.10
2018-06-09T07:26:53.306Z,46.10
2018-06-09T07:27:58.090Z,46.10
2018-06-09T07:29:02.982Z,46.20
2018-06-09T07:30:07.831Z,46.20
2018-06-09T07:31:12.724Z,46.10
2018-06-09T07:32:17.715Z,46.20
2018-06-09T07:33:22.609Z,46.20
2018-06-09T07:34:27.513Z,46.20
2018-06-09T07:35:32.439Z,46.20
2018-06-09T07:36:37.641Z,46.20
2018-06-09T07:37:42.663Z,46.20
2018-06-09T07:38:47.537Z,46.30
2018-06-09T07:39:52.571Z,46.20
2018-06-09T07:40:57.665Z,46.20
2018-06-09T07:42:02.537Z,46.30
2018-06-09T07:43:07.440Z,46.20
2018-06-09T07:44:12.307Z,46.30
2018-06-09T07:45:17.067Z,46.30
2018-06-09T07:46:22.049Z,46.30
2018-06-09T07:47:26.696Z,46.30
2018-06-09T07:48:31.380Z,46.30
2018-06-09T07:49:36.057Z,46.30
2018-06-09T07:50:40.876Z,46.30
2018-06-09T07:51:45.558Z,46.40
2018-06-09T07:52:50.568Z,46.30
2018-06-09T07:53:55.461Z,46.30
2018-06-09T07:55:00.359Z,46.30
2018-06-09T07:56:05.060Z,46.40
2018-06-09T07:57:09.753Z,46.40
2018-06-09T07:58:14.524Z,46.40
2018-06-09T07:59:19.388Z,46.40
2018-06-09T08:00:24.213Z,46.40
2018-06-09T08:01:29.119Z,46.40
2018-06-09T08:02:34.041Z,46.50
2018-06-09T08:03:39.108Z,46.50
2018-06-09T08:04:43.986Z,46.50
2018-06-09T08:05:48.808Z,46.50
2018-06-09T08:06:53.695Z,46.40
2018-06-09T08:07:58.668Z,46.50
2018-06-09T08:09:03.761Z,46.50
2018-06-09T08:10:08.620Z,46.50
2018-06-09T08:11:13.491Z,46.50
2018-06-09T08:12:18.822Z,46.50
2018-06-09T08:13:23.823Z,46.50
2018-06-09T08:14:28.608Z,46.50
2018-06-09T08:15:33.356Z,46.50
2018-06-09T08:16:38.208Z,46.50
2018-06-09T08:17:43.229Z,46.50
2018-06-09T08:18:47.960Z,46.50
2018-06-09T08:19:52.664Z,46.60
2018-06-09T08:20:57.485Z,46.50
2018-06-09T08:22:02.758Z,46.50
2018-06-09T08:23:07.703Z,46.50
2018-06-09T08:24:12.816Z,46.60
2018-06-09T08:25:17.902Z,46.60
2018-06-09T08:26:22.931Z,46.60
2018-06-09T08:27:27.918Z,46.60
2018-06-09T08:28:32.856Z,46.60
2018-06-09T08:29:37.831Z,46.60
2018-06-09T08:30:42.773Z,46.60
2018-06-09T08:31:47.558Z,46.60
2018-06-09T08:32:52.632Z,46.60
2018-06-09T08:33:57.452Z,46.60
2018-06-09T08:35:02.394Z,46.60
2018-06-09T08:36:07.429Z,46.60
2018-06-09T08:37:12.470Z,46.60
2018-06-09T08:38:17.351Z,46.60
2018-06-09T08:39:22.267Z,46.60
2018-06-09T08:40:27.394Z,46.70
2018-06-09T08:41:32.339Z,47.30
2018-06-09T08:42:37.418Z,46.60
2018-06-09T08:43:42.284Z,46.60
2018-06-09T08:44:47.088Z,46.60
2018-06-09T08:45:51.760Z,46.70
2018-06-09T08:46:56.650Z,46.70
2018-06-09T08:48:01.747Z,46.70
2018-06-09T08:49:06.631Z,46.60
2018-06-09T08:50:11.474Z,46.70
2018-06-09T08:51:16.316Z,46.60
2018-06-09T08:52:21.062Z,46.60
2018-06-09T08:53:26.138Z,46.60
2018-06-09T08:54:31.275Z,46.60
2018-06-09T08:55:36.191Z,46.60
2018-06-09T08:56:41.029Z,46.60
2018-06-09T08:57:46.049Z,46.60
2018-06-09T08:58:50.787Z,46.60
2018-06-09T08:59:55.574Z,46.60
2018-06-09T09:01:00.683Z,46.60
2018-06-09T09:02:05.497Z,46.60
2018-06-09T09:03:10.569Z,46.60
2018-06-09T09:04:15.338Z,46.60
2018-06-09T09:05:20.432Z,46.60
2018-06-09T09:06:25.282Z,46.60
2018-06-09T09:07:30.186Z,46.60
2018-06-09T09:08:35.301Z,46.60
2018-06-09T09:09:40.239Z,46.70
2018-06-09T09:10:45.281Z,47.30
2018-06-09T09:11:50.203Z,46.60
2018-06-09T09:12:55.179Z,46.60
2018-06-09T09:14:00.235Z,46.60
2018-06-09T09:15:05.086Z,46.60
2018-06-09T09:16:10.071Z,46.60
2018-06-09T09:17:14.890Z,46.60
2018-06-09T09:18:20.033Z,46.70
2018-06-09T09:19:25.193Z,46.60
2018-06-09T09:20:30.330Z,46.60
2018-06-09T09:21:35.027Z,46.70
2018-06-09T09:22:39.922Z,46.60
2018-06-09T09:23:45.006Z,46.60
2018-06-09T09:24:49.767Z,46.60
2018-06-09T09:25:54.644Z,46.70
2018-06-09T09:26:59.372Z,46.60
2018-06-09T09:28:04.164Z,46.70
2018-06-09T09:29:08.837Z,46.70
2018-06-09T09:30:13.918Z,46.70
2018-06-09T09:31:18.942Z,46.70
2018-06-09T09:32:23.765Z,46.80
2018-06-09T09:33:28.848Z,46.70
2018-06-09T09:34:33.861Z,46.70
2018-06-09T09:35:39.795Z,46.70
2018-06-09T09:36:46.129Z,46.70
2018-06-09T09:37:51.139Z,46.70
2018-06-09T09:38:55.902Z,46.70
2018-06-09T09:40:00.736Z,46.70
2018-06-09T09:41:05.589Z,46.70
2018-06-09T09:42:10.314Z,46.80
2018-06-09T09:43:15.182Z,46.80
2018-06-09T09:44:19.884Z,46.70
2018-06-09T09:45:24.907Z,46.80
2018-06-09T09:46:29.738Z,46.80
2018-06-09T09:47:34.470Z,46.80
2018-06-09T09:48:39.315Z,46.80
2018-06-09T09:49:44.278Z,46.80
2018-06-09T09:50:49.130Z,46.80
2018-06-09T09:51:54.222Z,46.90
2018-06-09T09:52:59.090Z,46.90
2018-06-09T09:54:03.910Z,46.90
2018-06-09T09:55:09.075Z,46.90
2018-06-09T09:56:14.300Z,47.00
2018-06-09T09:57:19.387Z,47.00
2018-06-09T09:58:24.859Z,47.00
2018-06-09T09:59:29.735Z,47.00
2018-06-09T10:00:34.698Z,47.00
2018-06-09T10:01:39.710Z,47.00
2018-06-09T10:02:44.731Z,47.00
2018-06-09T10:03:49.506Z,47.00
2018-06-09T10:04:54.458Z,47.10
2018-06-09T10:05:59.151Z,47.10
2018-06-09T10:07:04.161Z,47.10
2018-06-09T10:08:08.900Z,47.10
2018-06-09T10:09:13.744Z,47.10
2018-06-09T10:10:18.632Z,47.10
2018-06-09T10:11:23.794Z,47.10
2018-06-09T10:12:28.846Z,47.10
2018-06-09T10:13:33.739Z,47.10
2018-06-09T10:14:38.631Z,47.10
2018-06-09T10:15:43.550Z,47.10
2018-06-09T10:16:48.256Z,47.10
2018-06-09T10:17:53.133Z,47.10
2018-06-09T10:18:58.138Z,47.10
2018-06-09T10:20:02.900Z,47.10
2018-06-09T10:21:08.083Z,47.10
2018-06-09T10:22:13.216Z,47.10
2018-06-09T10:23:18.342Z,47.10
2018-06-09T10:24:23.368Z,47.10
2018-06-09T10:25:28.431Z,47.20
2018-06-09T10:26:33.243Z,47.20
2018-06-09T10:27:38.440Z,47.20
2018-06-09T10:28:43.391Z,47.90
2018-06-09T10:29:48.325Z,47.30
2018-06-09T10:30:53.209Z,47.30
2018-06-09T10:31:58.114Z,47.30
2018-06-09T10:33:03.297Z,47.30
2018-06-09T10:34:08.391Z,47.30
2018-06-09T10:35:13.368Z,47.30
2018-06-09T10:36:18.400Z,47.30
2018-06-09T10:37:23.509Z,47.30
2018-06-09T10:38:28.461Z,47.40
2018-06-09T10:39:33.307Z,47.40
2018-06-09T10:40:38.374Z,47.30
2018-06-09T10:41:43.460Z,47.30
2018-06-09T10:42:48.447Z,47.30
2018-06-09T10:43:53.283Z,47.30
2018-06-09T10:44:58.193Z,47.30
2018-06-09T10:46:03.155Z,47.30
2018-06-09T10:47:07.908Z,47.30
2018-06-09T10:48:12.795Z,47.30
2018-06-09T10:49:18.053Z,47.40
2018-06-09T10:50:22.903Z,47.40
2018-06-09T10:51:27.814Z,47.40
2018-06-09T10:52:32.575Z,47.40
2018-06-09T10:53:37.421Z,47.40
2018-06-09T10:54:42.701Z,47.40
2018-06-09T10:55:47.447Z,47.40
2018-06-09T10:56:52.804Z,47.40
2018-06-09T10:57:57.730Z,47.40
2018-06-09T10:59:02.634Z,47.40
2018-06-09T11:00:07.621Z,47.40
2018-06-09T11:01:12.419Z,47.40
2018-06-09T11:02:18.237Z,47.40
2018-06-09T11:03:23.375Z,47.40
2018-06-09T11:04:28.592Z,47.50
2018-06-09T11:05:33.794Z,47.40
2018-06-09T11:06:38.786Z,47.40
2018-06-09T11:07:44.008Z,47.40
2018-06-09T11:08:48.972Z,47.40
2018-06-09T11:09:54.029Z,47.40
2018-06-09T11:10:59.148Z,47.40
2018-06-09T11:12:04.317Z,47.40
2018-06-09T11:13:10.062Z,47.40
2018-06-09T11:14:14.887Z,47.30
2018-06-09T11:15:19.833Z,47.40
2018-06-09T11:16:25.104Z,47.40
2018-06-09T11:17:30.262Z,47.40
2018-06-09T11:18:35.451Z,47.40
2018-06-09T11:19:40.592Z,47.40
2018-06-09T11:20:45.699Z,47.40
2018-06-09T11:21:50.828Z,47.40
2018-06-09T11:22:55.736Z,47.40
2018-06-09T11:24:00.632Z,47.40
2018-06-09T11:25:05.620Z,47.40
2018-06-09T11:26:10.401Z,47.40
2018-06-09T11:27:15.456Z,47.30
2018-06-09T11:28:20.203Z,47.40
2018-06-09T11:29:25.063Z,47.30
2018-06-09T11:30:29.790Z,47.40
2018-06-09T11:31:34.775Z,47.40
2018-06-09T11:32:39.708Z,47.30
2018-06-09T11:33:44.413Z,47.70
2018-06-09T11:34:49.647Z,47.40
2018-06-09T11:35:54.504Z,47.40
2018-06-09T11:36:59.889Z,47.50
2018-06-09T11:38:04.834Z,47.50
2018-06-09T11:39:09.848Z,47.40
2018-06-09T11:40:14.959Z,47.40
2018-06-09T11:41:19.819Z,47.50
2018-06-09T11:42:24.789Z,47.50
2018-06-09T11:43:29.635Z,47.50
2018-06-09T11:44:34.444Z,47.50
2018-06-09T11:45:39.615Z,47.50
2018-06-09T11:46:44.480Z,47.50
2018-06-09T11:47:49.317Z,47.50
2018-06-09T11:48:54.207Z,47.50
2018-06-09T11:49:59.344Z,47.40
2018-06-09T11:51:04.092Z,47.50
2018-06-09T11:52:09.035Z,47.50
2018-06-09T11:53:13.778Z,47.50
2018-06-09T11:54:18.542Z,47.40
2018-06-09T11:55:23.772Z,47.50
2018-06-09T11:56:28.795Z,47.50
2018-06-09T11:57:33.850Z,47.50
2018-06-09T11:58:38.748Z,47.50
2018-06-09T11:59:43.819Z,47.40
2018-06-09T12:00:48.670Z,47.50
2018-06-09T12:01:53.857Z,47.40
2018-06-09T12:02:58.920Z,47.40
2018-06-09T12:04:03.892Z,47.40
2018-06-09T12:05:08.852Z,47.40
2018-06-09T12:06:14.168Z,47.50
2018-06-09T12:07:19.223Z,47.40
2018-06-09T12:08:23.936Z,47.40
2018-06-09T12:09:29.120Z,47.40
2018-06-09T12:10:33.933Z,47.40
2018-06-09T12:11:38.806Z,47.40
2018-06-09T12:12:43.725Z,47.40
2018-06-09T12:13:48.932Z,47.40
2018-06-09T12:14:56.864Z,47.40
2018-06-09T12:16:01.778Z,47.40
2018-06-09T12:17:07.096Z,47.40
2018-06-09T12:18:12.317Z,47.40
2018-06-09T12:19:17.340Z,47.40
2018-06-09T12:20:22.427Z,47.40
2018-06-09T12:21:27.255Z,47.40
2018-06-09T12:22:32.866Z,47.40
2018-06-09T12:23:37.700Z,47.40
2018-06-09T12:24:42.490Z,47.40
2018-06-09T12:25:47.393Z,47.30
2018-06-09T12:26:52.159Z,47.30
2018-06-09T12:27:57.386Z,47.30
2018-06-09T12:29:02.191Z,47.30
2018-06-09T12:30:07.094Z,47.30
2018-06-09T12:31:11.786Z,47.30
2018-06-09T12:32:16.824Z,47.30
2018-06-09T12:33:21.975Z,47.30
2018-06-09T12:34:26.676Z,47.30
2018-06-09T12:35:31.832Z,47.30
2018-06-09T12:36:36.860Z,47.30
2018-06-09T12:37:41.788Z,47.30
2018-06-09T12:38:47.061Z,47.30
2018-06-09T12:39:52.107Z,47.30
2018-06-09T12:40:56.829Z,47.30
2018-06-09T12:42:01.739Z,47.30
2018-06-09T12:43:06.611Z,47.30
2018-06-09T12:44:11.466Z,47.30
2018-06-09T12:45:16.376Z,47.30
2018-06-09T12:46:21.286Z,47.20
2018-06-09T12:47:26.426Z,47.20
2018-06-09T12:48:31.221Z,47.20
2018-06-09T12:49:35.905Z,47.20
2018-06-09T12:50:40.771Z,47.20
2018-06-09T12:51:46.800Z,47.20
2018-06-09T12:52:51.549Z,47.20
2018-06-09T12:53:56.443Z,47.20
2018-06-09T12:55:01.505Z,47.10
2018-06-09T12:56:06.506Z,47.10
2018-06-09T12:57:11.500Z,47.10
2018-06-09T12:58:16.515Z,47.10
2018-06-09T12:59:21.508Z,47.10
2018-06-09T13:00:26.416Z,47.10
2018-06-09T13:01:31.500Z,47.10
2018-06-09T13:02:36.197Z,47.10
2018-06-09T13:03:41.413Z,47.10
2018-06-09T13:04:47.143Z,47.00
2018-06-09T13:05:52.073Z,47.00
2018-06-09T13:06:56.958Z,47.00
2018-06-09T13:08:01.644Z,47.00
2018-06-09T13:09:06.537Z,47.00
2018-06-09T13:10:11.678Z,47.10
2018-06-09T13:11:16.623Z,47.10
2018-06-09T13:12:21.369Z,47.00
2018-06-09T13:13:26.225Z,47.00
2018-06-09T13:14:31.214Z,47.10
2018-06-09T13:15:36.211Z,47.10
2018-06-09T13:16:40.975Z,47.00
2018-06-09T13:17:45.856Z,47.00
2018-06-09T13:18:50.832Z,47.00
2018-06-09T13:19:55.856Z,47.00
2018-06-09T13:21:00.915Z,47.00
2018-06-09T13:22:05.847Z,47.00
2018-06-09T13:23:10.716Z,47.00
2018-06-09T13:24:15.889Z,47.00
2018-06-09T13:25:20.777Z,47.70
2018-06-09T13:26:25.966Z,47.00
2018-06-09T13:27:31.057Z,47.00
2018-06-09T13:28:35.917Z,46.90
2018-06-09T13:29:40.682Z,46.90
2018-06-09T13:30:45.660Z,46.90
2018-06-09T13:31:50.669Z,46.90
2018-06-09T13:32:55.781Z,46.90
2018-06-09T13:34:00.821Z,47.00
2018-06-09T13:35:05.637Z,47.00
2018-06-09T13:36:10.474Z,46.90
2018-06-09T13:37:15.778Z,46.90
2018-06-09T13:38:20.881Z,46.90
2018-06-09T13:39:25.821Z,47.00
2018-06-09T13:40:31.629Z,46.90
2018-06-09T13:41:36.453Z,46.90
2018-06-09T13:42:41.291Z,46.90
2018-06-09T13:43:46.243Z,46.80
2018-06-09T13:44:51.000Z,46.80
2018-06-09T13:45:56.010Z,46.80
2018-06-09T13:47:00.871Z,46.70
2018-06-09T13:48:05.856Z,46.80
2018-06-09T13:49:10.774Z,46.70
2018-06-09T13:50:15.609Z,46.70
2018-06-09T13:51:20.655Z,46.70
2018-06-09T13:52:25.677Z,46.70
2018-06-09T13:53:30.644Z,46.60
2018-06-09T13:54:35.480Z,46.60
2018-06-09T13:55:40.508Z,46.60
2018-06-09T13:56:45.444Z,46.60